DLH77U EDDF-ESSV
Flight info
| Callsign | DLH77U |
|---|---|
| Flight time | 1h 35m |
| Altitude | 35000 |
| Route | MARUN3W MARUN Y150 TOLGI DCT GARLU DCT BILRA Q800 POKEN DCT KINTI |
| Aircraft | A320/M-SDE3FGHIRWY/LB1 |
Departure
| Time | 2026-04-16 12:52 |
|---|---|
| Airport | Frankfurt Main Airport (EDDF) |
Arrival
| Time | 2026-04-16 14:27 |
|---|---|
| Airport | Visby Airport (ESSV) |
| Time | Latitude | Longitude | Altitude | Speed | Heading |
|---|---|---|---|---|---|
| 2026-04-16 12:43 | 50.04078 | 8.55681 | 353 ft | 0 kts | 160° |
| 2026-04-16 12:46 | 50.04062 | 8.55690 | 352 ft | 5 kts | 160° |
| 2026-04-16 12:46 | 50.04014 | 8.55740 | 350 ft | 11 kts | 108° |
| 2026-04-16 12:46 | 50.04032 | 8.55883 | 350 ft | 14 kts | 70° |
| 2026-04-16 12:46 | 50.04066 | 8.56023 | 353 ft | 13 kts | 70° |
| 2026-04-16 12:47 | 50.04100 | 8.56165 | 355 ft | 13 kts | 70° |
| 2026-04-16 12:47 | 50.04133 | 8.56302 | 357 ft | 13 kts | 70° |
| 2026-04-16 12:47 | 50.04166 | 8.56443 | 358 ft | 14 kts | 70° |
| 2026-04-16 12:47 | 50.04201 | 8.56588 | 359 ft | 14 kts | 70° |
| 2026-04-16 12:48 | 50.04236 | 8.56734 | 362 ft | 13 kts | 70° |
| 2026-04-16 12:48 | 50.04268 | 8.56866 | 366 ft | 12 kts | 70° |
| 2026-04-16 12:48 | 50.04298 | 8.56990 | 367 ft | 12 kts | 70° |
| 2026-04-16 12:48 | 50.04330 | 8.57121 | 368 ft | 13 kts | 70° |
| 2026-04-16 12:49 | 50.04364 | 8.57266 | 368 ft | 15 kts | 70° |
| 2026-04-16 12:49 | 50.04402 | 8.57428 | 367 ft | 17 kts | 70° |
| 2026-04-16 12:49 | 50.04448 | 8.57621 | 367 ft | 19 kts | 70° |
| 2026-04-16 12:49 | 50.04496 | 8.57823 | 371 ft | 19 kts | 70° |
| 2026-04-16 12:50 | 50.04541 | 8.58015 | 374 ft | 18 kts | 70° |
| 2026-04-16 12:50 | 50.04587 | 8.58209 | 376 ft | 18 kts | 70° |
| 2026-04-16 12:50 | 50.04631 | 8.58394 | 374 ft | 18 kts | 70° |
| 2026-04-16 12:50 | 50.04606 | 8.58573 | 367 ft | 21 kts | 147° |
| 2026-04-16 12:51 | 50.04481 | 8.58560 | 366 ft | 19 kts | 247° |
| 2026-04-16 12:51 | 50.04364 | 8.58075 | 372 ft | 87 kts | 251° |
| 2026-04-16 12:51 | 50.04065 | 8.56816 | 388 ft | 155 kts | 249° |
| 2026-04-16 12:51 | 50.03674 | 8.55160 | 964 ft | 172 kts | 251° |
| 2026-04-16 12:52 | 50.03293 | 8.53396 | 1704 ft | 175 kts | 251° |
| 2026-04-16 12:52 | 50.02818 | 8.51582 | 2228 ft | 187 kts | 252° |
| 2026-04-16 12:52 | 50.02781 | 8.49463 | 2856 ft | 210 kts | 275° |
| 2026-04-16 12:52 | 50.02914 | 8.47122 | 3608 ft | 231 kts | 275° |
| 2026-04-16 12:53 | 50.02841 | 8.44595 | 4621 ft | 239 kts | 263° |
| 2026-04-16 12:53 | 50.02629 | 8.42040 | 5581 ft | 248 kts | 269° |
| 2026-04-16 12:53 | 50.02994 | 8.39465 | 6666 ft | 250 kts | 292° |
| 2026-04-16 12:53 | 50.03869 | 8.37158 | 7691 ft | 255 kts | 307° |
| 2026-04-16 12:54 | 50.05051 | 8.35105 | 8765 ft | 258 kts | 315° |
| 2026-04-16 12:54 | 50.06400 | 8.33293 | 9765 ft | 262 kts | 320° |
| 2026-04-16 12:54 | 50.07838 | 8.31637 | 10764 ft | 264 kts | 320° |
| 2026-04-16 12:54 | 50.09430 | 8.30237 | 11703 ft | 270 kts | 339° |
| 2026-04-16 12:55 | 50.11300 | 8.29754 | 12635 ft | 277 kts | 355° |
| 2026-04-16 12:55 | 50.13219 | 8.29965 | 13525 ft | 283 kts | 5° |
| 2026-04-16 12:55 | 50.15148 | 8.30638 | 14401 ft | 288 kts | 12° |
| 2026-04-16 12:55 | 50.17038 | 8.31601 | 15217 ft | 294 kts | 15° |
| 2026-04-16 12:56 | 50.18941 | 8.32783 | 16031 ft | 300 kts | 18° |
| 2026-04-16 12:56 | 50.20854 | 8.34117 | 16837 ft | 304 kts | 20° |
| 2026-04-16 12:56 | 50.22753 | 8.35539 | 17557 ft | 309 kts | 21° |
| 2026-04-16 12:56 | 50.24688 | 8.37055 | 18321 ft | 313 kts | 22° |
| 2026-04-16 12:57 | 50.26625 | 8.38633 | 19015 ft | 317 kts | 22° |
| 2026-04-16 12:57 | 50.28601 | 8.40090 | 19769 ft | 314 kts | 13° |
| 2026-04-16 12:57 | 50.30645 | 8.41244 | 20471 ft | 316 kts | 14° |
| 2026-04-16 12:57 | 50.32732 | 8.42411 | 21138 ft | 319 kts | 13° |
| 2026-04-16 12:58 | 50.34810 | 8.43558 | 21754 ft | 323 kts | 13° |
| 2026-04-16 12:58 | 50.36927 | 8.44734 | 22409 ft | 325 kts | 13° |
| 2026-04-16 12:58 | 50.39054 | 8.45907 | 23051 ft | 327 kts | 13° |
| 2026-04-16 12:58 | 50.41213 | 8.47082 | 23667 ft | 329 kts | 12° |
| 2026-04-16 12:59 | 50.43370 | 8.48260 | 24245 ft | 333 kts | 12° |
| 2026-04-16 12:59 | 50.45583 | 8.49474 | 24836 ft | 336 kts | 12° |
| 2026-04-16 12:59 | 50.47791 | 8.50568 | 25405 ft | 338 kts | 10° |
| 2026-04-16 13:00 | 50.52319 | 8.52790 | 26504 ft | 345 kts | 9° |
| 2026-04-16 13:00 | 50.54621 | 8.53904 | 27083 ft | 347 kts | 9° |
| 2026-04-16 13:00 | 50.56933 | 8.55026 | 27612 ft | 350 kts | 9° |
| 2026-04-16 13:00 | 50.59261 | 8.56140 | 28149 ft | 352 kts | 9° |
| 2026-04-16 13:01 | 50.61573 | 8.57250 | 28627 ft | 356 kts | 10° |
| 2026-04-16 13:01 | 50.63973 | 8.58405 | 29097 ft | 360 kts | 9° |
| 2026-04-16 13:01 | 50.66348 | 8.59544 | 29633 ft | 361 kts | 9° |
| 2026-04-16 13:01 | 50.68747 | 8.60698 | 30074 ft | 365 kts | 9° |
| 2026-04-16 13:02 | 50.71179 | 8.61880 | 30546 ft | 368 kts | 9° |
| 2026-04-16 13:02 | 50.73621 | 8.63068 | 30979 ft | 371 kts | 9° |
| 2026-04-16 13:02 | 50.76082 | 8.64275 | 31533 ft | 370 kts | 9° |
| 2026-04-16 13:02 | 50.78554 | 8.65566 | 31912 ft | 380 kts | 18° |
| 2026-04-16 13:03 | 50.80717 | 8.68061 | 32333 ft | 399 kts | 39° |
| 2026-04-16 13:03 | 50.82672 | 8.71252 | 32614 ft | 406 kts | 40° |
| 2026-04-16 13:03 | 50.84588 | 8.74584 | 33011 ft | 410 kts | 42° |
| 2026-04-16 13:03 | 50.86449 | 8.77952 | 33466 ft | 411 kts | 43° |
| 2026-04-16 13:04 | 50.88308 | 8.81437 | 33778 ft | 417 kts | 44° |
| 2026-04-16 13:04 | 50.90146 | 8.84971 | 34193 ft | 418 kts | 44° |
| 2026-04-16 13:04 | 50.91999 | 8.88582 | 34512 ft | 423 kts | 45° |
| 2026-04-16 13:04 | 50.93809 | 8.92215 | 34828 ft | 426 kts | 45° |
| 2026-04-16 13:05 | 50.95658 | 8.95924 | 35042 ft | 431 kts | 45° |
| 2026-04-16 13:05 | 50.99365 | 9.03541 | 35203 ft | 447 kts | 46° |
| 2026-04-16 13:05 | 51.01300 | 9.07508 | 35203 ft | 458 kts | 46° |
| 2026-04-16 13:06 | 51.03233 | 9.11542 | 35209 ft | 466 kts | 46° |
| 2026-04-16 13:06 | 51.07113 | 9.19715 | 35199 ft | 454 kts | 46° |
| 2026-04-16 13:07 | 51.11492 | 9.26562 | 35220 ft | 430 kts | 18° |
| 2026-04-16 13:07 | 51.17130 | 9.29248 | 35215 ft | 426 kts | 7° |
| 2026-04-16 13:08 | 51.22904 | 9.31591 | 35218 ft | 432 kts | 6° |
| 2026-04-16 13:08 | 51.28754 | 9.33816 | 35215 ft | 435 kts | 6° |
| 2026-04-16 13:09 | 51.34642 | 9.36003 | 35212 ft | 437 kts | 6° |
| 2026-04-16 13:09 | 51.40567 | 9.38186 | 35216 ft | 438 kts | 6° |
| 2026-04-16 13:10 | 51.46488 | 9.40322 | 35211 ft | 437 kts | 5° |
| 2026-04-16 13:10 | 51.52403 | 9.42432 | 35206 ft | 438 kts | 5° |
| 2026-04-16 13:11 | 51.58332 | 9.44524 | 35212 ft | 438 kts | 5° |
| 2026-04-16 13:11 | 51.64269 | 9.46636 | 35198 ft | 438 kts | 5° |
| 2026-04-16 13:12 | 51.70216 | 9.48741 | 35204 ft | 438 kts | 5° |
| 2026-04-16 13:12 | 51.76163 | 9.50858 | 35191 ft | 438 kts | 5° |
| 2026-04-16 13:13 | 51.81817 | 9.54530 | 35210 ft | 459 kts | 32° |
| 2026-04-16 13:13 | 51.86733 | 9.61107 | 35201 ft | 463 kts | 34° |
| 2026-04-16 13:14 | 51.91597 | 9.67924 | 35192 ft | 465 kts | 35° |
| 2026-04-16 13:14 | 51.96417 | 9.74909 | 35186 ft | 466 kts | 36° |
| 2026-04-16 13:15 | 52.01204 | 9.81972 | 35187 ft | 466 kts | 37° |
| 2026-04-16 13:15 | 52.05912 | 9.89109 | 35184 ft | 466 kts | 37° |
| 2026-04-16 13:16 | 52.10632 | 9.96315 | 35185 ft | 466 kts | 37° |
| 2026-04-16 13:16 | 52.15351 | 10.03618 | 35184 ft | 466 kts | 38° |
| 2026-04-16 13:17 | 52.20019 | 10.10903 | 35192 ft | 467 kts | 38° |
| 2026-04-16 13:17 | 52.24694 | 10.18203 | 35187 ft | 467 kts | 38° |
| 2026-04-16 13:18 | 52.29363 | 10.25527 | 35188 ft | 468 kts | 38° |
| 2026-04-16 13:18 | 52.34013 | 10.32894 | 35188 ft | 468 kts | 39° |
| 2026-04-16 13:19 | 52.38685 | 10.40328 | 35188 ft | 468 kts | 39° |
| 2026-04-16 13:19 | 52.43328 | 10.47765 | 35191 ft | 472 kts | 39° |
| 2026-04-16 13:20 | 52.47997 | 10.55259 | 35176 ft | 471 kts | 39° |
| 2026-04-16 13:20 | 52.52671 | 10.62744 | 35174 ft | 470 kts | 39° |
| 2026-04-16 13:21 | 52.57341 | 10.70220 | 35163 ft | 469 kts | 39° |
| 2026-04-16 13:21 | 52.61993 | 10.77660 | 35168 ft | 469 kts | 39° |
| 2026-04-16 13:22 | 52.66636 | 10.85158 | 35165 ft | 469 kts | 40° |
| 2026-04-16 13:22 | 52.71265 | 10.92717 | 35160 ft | 469 kts | 40° |
| 2026-04-16 13:23 | 52.75897 | 11.00287 | 35156 ft | 470 kts | 40° |
| 2026-04-16 13:23 | 52.80514 | 11.07834 | 35150 ft | 469 kts | 40° |
| 2026-04-16 13:24 | 52.85242 | 11.15233 | 35158 ft | 468 kts | 39° |
| 2026-04-16 13:24 | 52.89962 | 11.22587 | 35151 ft | 468 kts | 38° |
| 2026-04-16 13:25 | 52.94695 | 11.29999 | 35157 ft | 468 kts | 39° |
| 2026-04-16 13:25 | 52.99391 | 11.37395 | 35150 ft | 468 kts | 39° |
| 2026-04-16 13:26 | 53.04086 | 11.44789 | 35158 ft | 468 kts | 39° |
| 2026-04-16 13:26 | 53.08804 | 11.52231 | 35154 ft | 468 kts | 39° |
| 2026-04-16 13:27 | 53.13528 | 11.59718 | 35162 ft | 468 kts | 39° |
| 2026-04-16 13:27 | 53.18236 | 11.67166 | 35151 ft | 468 kts | 40° |
| 2026-04-16 13:28 | 53.22943 | 11.74618 | 35151 ft | 467 kts | 40° |
| 2026-04-16 13:28 | 53.27632 | 11.82063 | 35151 ft | 468 kts | 40° |
| 2026-04-16 13:29 | 53.32324 | 11.89510 | 35149 ft | 467 kts | 40° |
| 2026-04-16 13:29 | 53.37026 | 11.96990 | 35150 ft | 466 kts | 40° |
| 2026-04-16 13:30 | 53.41699 | 12.04467 | 35149 ft | 466 kts | 40° |
| 2026-04-16 13:30 | 53.46368 | 12.11967 | 35153 ft | 465 kts | 40° |
| 2026-04-16 13:31 | 53.51021 | 12.19517 | 35145 ft | 465 kts | 40° |
| 2026-04-16 13:31 | 53.55627 | 12.27027 | 35142 ft | 465 kts | 40° |
| 2026-04-16 13:32 | 53.60266 | 12.34621 | 35148 ft | 465 kts | 40° |
| 2026-04-16 13:32 | 53.64880 | 12.42179 | 35152 ft | 465 kts | 40° |
| 2026-04-16 13:33 | 53.69499 | 12.49782 | 35150 ft | 465 kts | 40° |
| 2026-04-16 13:33 | 53.74134 | 12.57435 | 35152 ft | 464 kts | 40° |
| 2026-04-16 13:34 | 53.78731 | 12.65056 | 35159 ft | 464 kts | 41° |
| 2026-04-16 13:34 | 53.83361 | 12.72652 | 35151 ft | 464 kts | 41° |
| 2026-04-16 13:35 | 53.87963 | 12.80264 | 35150 ft | 463 kts | 41° |
| 2026-04-16 13:35 | 53.92563 | 12.87928 | 35152 ft | 464 kts | 41° |
| 2026-04-16 13:36 | 53.97139 | 12.95549 | 35150 ft | 464 kts | 41° |
| 2026-04-16 13:36 | 54.01772 | 13.03265 | 35146 ft | 464 kts | 41° |
| 2026-04-16 13:37 | 54.06374 | 13.10952 | 35146 ft | 464 kts | 41° |
| 2026-04-16 13:37 | 54.10954 | 13.18642 | 35167 ft | 463 kts | 41° |
| 2026-04-16 13:38 | 54.15507 | 13.26354 | 35164 ft | 463 kts | 41° |
| 2026-04-16 13:38 | 54.20049 | 13.34098 | 35164 ft | 463 kts | 41° |
| 2026-04-16 13:39 | 54.24616 | 13.41925 | 35172 ft | 463 kts | 41° |
| 2026-04-16 13:39 | 54.29131 | 13.49652 | 35171 ft | 463 kts | 41° |
| 2026-04-16 13:40 | 54.33676 | 13.57461 | 35163 ft | 463 kts | 42° |
| 2026-04-16 13:40 | 54.38204 | 13.65292 | 35174 ft | 462 kts | 43° |
| 2026-04-16 13:41 | 54.42737 | 13.73049 | 35168 ft | 462 kts | 42° |
| 2026-04-16 13:41 | 54.47256 | 13.80898 | 35183 ft | 462 kts | 43° |
| 2026-04-16 13:42 | 54.51762 | 13.88751 | 35168 ft | 463 kts | 43° |
| 2026-04-16 13:42 | 54.56280 | 13.96645 | 35184 ft | 462 kts | 43° |
| 2026-04-16 13:43 | 54.60765 | 14.04504 | 35178 ft | 461 kts | 43° |
| 2026-04-16 13:43 | 54.65256 | 14.12376 | 35188 ft | 461 kts | 42° |
| 2026-04-16 13:44 | 54.69750 | 14.20262 | 35181 ft | 461 kts | 42° |
| 2026-04-16 13:44 | 54.74245 | 14.28147 | 35182 ft | 461 kts | 42° |
| 2026-04-16 13:44 | 54.76245 | 14.32507 | 35164 ft | 466 kts | 59° |
| 2026-04-16 13:45 | 54.77486 | 14.37626 | 35227 ft | 466 kts | 65° |
| 2026-04-16 13:45 | 54.79833 | 14.48178 | 35190 ft | 469 kts | 67° |
| 2026-04-16 13:45 | 54.81324 | 14.53122 | 35171 ft | 461 kts | 49° |
| 2026-04-16 13:46 | 54.83627 | 14.56822 | 35214 ft | 452 kts | 32° |
| 2026-04-16 13:46 | 54.88735 | 14.63266 | 35197 ft | 455 kts | 32° |
| 2026-04-16 13:47 | 54.93888 | 14.69604 | 35196 ft | 455 kts | 32° |
| 2026-04-16 13:47 | 54.99072 | 14.75842 | 35195 ft | 456 kts | 32° |
| 2026-04-16 13:48 | 55.04295 | 14.82104 | 35196 ft | 456 kts | 32° |
| 2026-04-16 13:48 | 55.09533 | 14.88407 | 35195 ft | 456 kts | 32° |
| 2026-04-16 13:49 | 55.14748 | 14.94690 | 35196 ft | 456 kts | 32° |
| 2026-04-16 13:49 | 55.19969 | 15.00952 | 35196 ft | 455 kts | 32° |
| 2026-04-16 13:50 | 55.25203 | 15.07240 | 35191 ft | 455 kts | 32° |
| 2026-04-16 13:50 | 55.30406 | 15.13508 | 35194 ft | 455 kts | 32° |
| 2026-04-16 13:51 | 55.35607 | 15.19772 | 35195 ft | 455 kts | 32° |
| 2026-04-16 13:51 | 55.40839 | 15.26080 | 35197 ft | 455 kts | 32° |
| 2026-04-16 13:52 | 55.46031 | 15.32352 | 35195 ft | 455 kts | 32° |
| 2026-04-16 13:52 | 55.51248 | 15.38672 | 35193 ft | 454 kts | 32° |
| 2026-04-16 13:53 | 55.56464 | 15.44999 | 35196 ft | 454 kts | 32° |
| 2026-04-16 13:53 | 55.61655 | 15.51296 | 35196 ft | 454 kts | 32° |
| 2026-04-16 13:54 | 55.66851 | 15.57612 | 35195 ft | 454 kts | 32° |
| 2026-04-16 13:54 | 55.72036 | 15.63941 | 35194 ft | 454 kts | 32° |
| 2026-04-16 13:55 | 55.77241 | 15.70305 | 35191 ft | 454 kts | 32° |
| 2026-04-16 13:55 | 55.82420 | 15.76653 | 35191 ft | 454 kts | 32° |
| 2026-04-16 13:56 | 55.87605 | 15.83031 | 35190 ft | 453 kts | 32° |
| 2026-04-16 13:56 | 55.92756 | 15.89424 | 35191 ft | 453 kts | 32° |
| 2026-04-16 13:57 | 55.97921 | 15.95844 | 35192 ft | 453 kts | 33° |
| 2026-04-16 13:57 | 56.03064 | 16.02298 | 35193 ft | 453 kts | 33° |
| 2026-04-16 13:58 | 56.10803 | 16.12026 | 35188 ft | 453 kts | 32° |
| 2026-04-16 13:58 | 56.15875 | 16.18423 | 34995 ft | 435 kts | 32° |
| 2026-04-16 13:59 | 56.18318 | 16.21521 | 34669 ft | 423 kts | 32° |
| 2026-04-16 13:59 | 56.20682 | 16.24537 | 34348 ft | 412 kts | 32° |
| 2026-04-16 13:59 | 56.22979 | 16.27473 | 34031 ft | 404 kts | 32° |
| 2026-04-16 13:59 | 56.25270 | 16.30395 | 33733 ft | 405 kts | 31° |
| 2026-04-16 14:00 | 56.27563 | 16.33317 | 33438 ft | 410 kts | 32° |
| 2026-04-16 14:00 | 56.29882 | 16.36270 | 33104 ft | 408 kts | 31° |
| 2026-04-16 14:00 | 56.32188 | 16.39210 | 32752 ft | 403 kts | 32° |
| 2026-04-16 14:00 | 56.34459 | 16.42096 | 32399 ft | 397 kts | 31° |
| 2026-04-16 14:01 | 56.36696 | 16.44950 | 32054 ft | 392 kts | 31° |
| 2026-04-16 14:01 | 56.38894 | 16.47762 | 31707 ft | 389 kts | 31° |
| 2026-04-16 14:01 | 56.41087 | 16.50575 | 31358 ft | 386 kts | 31° |
| 2026-04-16 14:01 | 56.43254 | 16.53359 | 31012 ft | 383 kts | 31° |
| 2026-04-16 14:02 | 56.45409 | 16.56137 | 30661 ft | 381 kts | 31° |
| 2026-04-16 14:02 | 56.47566 | 16.58922 | 30289 ft | 377 kts | 31° |
| 2026-04-16 14:02 | 56.49664 | 16.61638 | 29910 ft | 373 kts | 31° |
| 2026-04-16 14:02 | 56.51754 | 16.64342 | 29529 ft | 369 kts | 31° |
| 2026-04-16 14:03 | 56.53849 | 16.67037 | 29139 ft | 366 kts | 32° |
| 2026-04-16 14:03 | 56.55913 | 16.69704 | 28755 ft | 364 kts | 32° |
| 2026-04-16 14:03 | 56.57961 | 16.72374 | 28377 ft | 361 kts | 33° |
| 2026-04-16 14:03 | 56.60005 | 16.75007 | 27996 ft | 359 kts | 33° |
| 2026-04-16 14:04 | 56.62011 | 16.77631 | 27614 ft | 356 kts | 34° |
| 2026-04-16 14:04 | 56.63992 | 16.80219 | 27240 ft | 353 kts | 34° |
| 2026-04-16 14:04 | 56.65975 | 16.82786 | 26854 ft | 350 kts | 34° |
| 2026-04-16 14:04 | 56.67960 | 16.85395 | 26475 ft | 348 kts | 35° |
| 2026-04-16 14:05 | 56.69919 | 16.87949 | 26095 ft | 345 kts | 35° |
| 2026-04-16 14:05 | 56.71850 | 16.90472 | 25717 ft | 342 kts | 35° |
| 2026-04-16 14:05 | 56.73760 | 16.92998 | 25338 ft | 339 kts | 36° |
| 2026-04-16 14:05 | 56.75660 | 16.95497 | 24963 ft | 336 kts | 36° |
| 2026-04-16 14:06 | 56.77554 | 16.97975 | 24592 ft | 334 kts | 36° |
| 2026-04-16 14:06 | 56.79413 | 17.00419 | 24237 ft | 333 kts | 37° |
| 2026-04-16 14:06 | 56.81314 | 17.02923 | 23866 ft | 333 kts | 37° |
| 2026-04-16 14:06 | 56.83165 | 17.05364 | 23493 ft | 332 kts | 37° |
| 2026-04-16 14:07 | 56.85034 | 17.07841 | 23115 ft | 329 kts | 37° |
| 2026-04-16 14:07 | 56.86892 | 17.10291 | 22745 ft | 328 kts | 37° |
| 2026-04-16 14:07 | 56.88736 | 17.12719 | 22372 ft | 328 kts | 37° |
| 2026-04-16 14:07 | 56.90585 | 17.15169 | 21991 ft | 326 kts | 37° |
| 2026-04-16 14:08 | 56.92392 | 17.17563 | 21624 ft | 324 kts | 37° |
| 2026-04-16 14:08 | 56.94218 | 17.19994 | 21248 ft | 322 kts | 37° |
| 2026-04-16 14:08 | 56.96017 | 17.22393 | 20865 ft | 320 kts | 37° |
| 2026-04-16 14:08 | 56.97813 | 17.24785 | 20485 ft | 319 kts | 37° |
| 2026-04-16 14:09 | 56.99623 | 17.27192 | 20099 ft | 317 kts | 37° |
| 2026-04-16 14:09 | 57.01387 | 17.29541 | 19721 ft | 315 kts | 37° |
| 2026-04-16 14:09 | 57.03161 | 17.31915 | 19334 ft | 314 kts | 37° |
| 2026-04-16 14:09 | 57.04903 | 17.34256 | 18954 ft | 311 kts | 37° |
| 2026-04-16 14:10 | 57.06652 | 17.36614 | 18568 ft | 309 kts | 37° |
| 2026-04-16 14:10 | 57.08362 | 17.38925 | 18190 ft | 308 kts | 36° |
| 2026-04-16 14:10 | 57.10087 | 17.41247 | 17807 ft | 306 kts | 36° |
| 2026-04-16 14:10 | 57.11811 | 17.43567 | 17423 ft | 305 kts | 36° |
| 2026-04-16 14:11 | 57.13522 | 17.45866 | 17037 ft | 303 kts | 36° |
| 2026-04-16 14:11 | 57.15231 | 17.48158 | 16655 ft | 301 kts | 36° |
| 2026-04-16 14:11 | 57.16915 | 17.50426 | 16278 ft | 300 kts | 36° |
| 2026-04-16 14:11 | 57.18586 | 17.52685 | 15896 ft | 298 kts | 36° |
| 2026-04-16 14:12 | 57.20246 | 17.54943 | 15515 ft | 297 kts | 36° |
| 2026-04-16 14:12 | 57.21903 | 17.57204 | 15138 ft | 295 kts | 35° |
| 2026-04-16 14:12 | 57.23556 | 17.59443 | 14751 ft | 293 kts | 35° |
| 2026-04-16 14:12 | 57.25183 | 17.61646 | 14367 ft | 292 kts | 35° |
| 2026-04-16 14:13 | 57.26812 | 17.63850 | 13990 ft | 291 kts | 34° |
| 2026-04-16 14:13 | 57.28441 | 17.66057 | 13605 ft | 289 kts | 35° |
| 2026-04-16 14:13 | 57.30061 | 17.68242 | 13224 ft | 287 kts | 35° |
| 2026-04-16 14:13 | 57.31677 | 17.70432 | 12843 ft | 284 kts | 35° |
| 2026-04-16 14:14 | 57.33247 | 17.72570 | 12466 ft | 282 kts | 35° |
| 2026-04-16 14:14 | 57.34820 | 17.74724 | 12083 ft | 279 kts | 35° |
| 2026-04-16 14:14 | 57.36362 | 17.76845 | 11701 ft | 277 kts | 35° |
| 2026-04-16 14:14 | 57.37909 | 17.78979 | 11313 ft | 275 kts | 35° |
| 2026-04-16 14:15 | 57.39434 | 17.81079 | 10930 ft | 274 kts | 35° |
| 2026-04-16 14:15 | 57.40966 | 17.83176 | 10542 ft | 272 kts | 35° |
| 2026-04-16 14:15 | 57.42475 | 17.85244 | 10157 ft | 270 kts | 34° |
| 2026-04-16 14:15 | 57.44000 | 17.87333 | 9752 ft | 268 kts | 33° |
| 2026-04-16 14:16 | 57.45570 | 17.89094 | 9378 ft | 266 kts | 29° |
| 2026-04-16 14:16 | 57.47163 | 17.90846 | 8989 ft | 264 kts | 29° |
| 2026-04-16 14:16 | 57.48746 | 17.92558 | 8591 ft | 263 kts | 29° |
| 2026-04-16 14:16 | 57.50317 | 17.94234 | 8205 ft | 260 kts | 28° |
| 2026-04-16 14:17 | 57.51884 | 17.95894 | 7796 ft | 259 kts | 28° |
| 2026-04-16 14:17 | 57.53440 | 17.97548 | 7417 ft | 257 kts | 28° |
| 2026-04-16 14:17 | 57.54993 | 17.99197 | 7017 ft | 255 kts | 28° |
| 2026-04-16 14:17 | 57.56537 | 18.00832 | 6623 ft | 254 kts | 28° |
| 2026-04-16 14:18 | 57.58060 | 18.02444 | 6239 ft | 251 kts | 28° |
| 2026-04-16 14:18 | 57.59560 | 18.04034 | 5850 ft | 249 kts | 28° |
| 2026-04-16 14:18 | 57.61074 | 18.05641 | 5448 ft | 248 kts | 28° |
| 2026-04-16 14:18 | 57.62567 | 18.07220 | 5141 ft | 244 kts | 28° |
| 2026-04-16 14:19 | 57.64033 | 18.08776 | 5033 ft | 242 kts | 28° |
| 2026-04-16 14:19 | 57.65506 | 18.10343 | 4979 ft | 246 kts | 28° |
| 2026-04-16 14:19 | 57.67004 | 18.11935 | 4984 ft | 247 kts | 28° |
| 2026-04-16 14:19 | 57.68481 | 18.13507 | 4986 ft | 246 kts | 28° |
| 2026-04-16 14:20 | 57.69988 | 18.15111 | 4991 ft | 246 kts | 28° |
| 2026-04-16 14:20 | 57.71465 | 18.16684 | 4984 ft | 246 kts | 28° |
| 2026-04-16 14:20 | 57.72968 | 18.18285 | 4995 ft | 246 kts | 28° |
| 2026-04-16 14:20 | 57.74448 | 18.19860 | 4988 ft | 246 kts | 28° |
| 2026-04-16 14:21 | 57.75934 | 18.21452 | 4974 ft | 245 kts | 28° |
| 2026-04-16 14:21 | 57.77422 | 18.23046 | 4982 ft | 246 kts | 28° |
| 2026-04-16 14:21 | 57.78904 | 18.24629 | 4979 ft | 246 kts | 28° |
| 2026-04-16 14:21 | 57.80385 | 18.26218 | 4985 ft | 245 kts | 28° |
| 2026-04-16 14:22 | 57.81867 | 18.27805 | 4955 ft | 239 kts | 28° |
| 2026-04-16 14:22 | 57.83293 | 18.29325 | 4663 ft | 233 kts | 28° |
| 2026-04-16 14:22 | 57.84657 | 18.30877 | 4356 ft | 228 kts | 38° |
| 2026-04-16 14:22 | 57.85434 | 18.33408 | 3950 ft | 228 kts | 77° |
| 2026-04-16 14:23 | 57.85146 | 18.36301 | 3531 ft | 232 kts | 116° |
| 2026-04-16 14:23 | 57.84301 | 18.38835 | 3127 ft | 228 kts | 117° |
| 2026-04-16 14:23 | 57.83495 | 18.41227 | 2869 ft | 208 kts | 117° |
| 2026-04-16 14:23 | 57.82410 | 18.42887 | 2460 ft | 203 kts | 158° |
| 2026-04-16 14:24 | 57.81068 | 18.42911 | 2110 ft | 188 kts | 188° |
| 2026-04-16 14:24 | 57.79809 | 18.42573 | 1859 ft | 174 kts | 187° |
| 2026-04-16 14:24 | 57.78588 | 18.42250 | 1836 ft | 181 kts | 187° |
| 2026-04-16 14:24 | 57.77331 | 18.41917 | 1793 ft | 183 kts | 187° |
| 2026-04-16 14:25 | 57.76085 | 18.41406 | 1781 ft | 184 kts | 195° |
| 2026-04-16 14:25 | 57.74870 | 18.40689 | 1776 ft | 184 kts | 199° |
| 2026-04-16 14:25 | 57.73666 | 18.39884 | 1777 ft | 178 kts | 200° |
| 2026-04-16 14:25 | 57.72534 | 18.39083 | 1673 ft | 172 kts | 201° |
| 2026-04-16 14:26 | 57.71396 | 18.38299 | 1357 ft | 179 kts | 200° |
| 2026-04-16 14:26 | 57.70215 | 18.37473 | 1099 ft | 180 kts | 201° |
| 2026-04-16 14:26 | 57.69059 | 18.36605 | 783 ft | 180 kts | 202° |
| 2026-04-16 14:26 | 57.67900 | 18.35792 | 453 ft | 173 kts | 201° |
| 2026-04-16 14:27 | 57.66811 | 18.35021 | 152 ft | 161 kts | 203° |
| 2026-04-16 14:27 | 57.66059 | 18.34450 | 140 ft | 46 kts | 201° |
| 2026-04-16 14:27 | 57.65891 | 18.34338 | 142 ft | 24 kts | 204° |
| 2026-04-16 14:27 | 57.65852 | 18.34300 | 143 ft | 1 kts | 136° |
| 2026-04-16 14:28 | 57.65870 | 18.34321 | 143 ft | 3 kts | 342° |
| 2026-04-16 14:28 | 57.65943 | 18.34341 | 141 ft | 16 kts | 336° |
| 2026-04-16 14:28 | 57.66001 | 18.34133 | 143 ft | 18 kts | 285° |
| 2026-04-16 14:28 | 57.65978 | 18.33986 | 143 ft | 9 kts | 288° |
| 2026-04-16 14:29 | 57.66007 | 18.33934 | 143 ft | 0 kts | 329° |